sensor_id;sensor_type;location;lat;lon;timestamp;pressure;altitude;pressure_sealevel;temperature;humidity
52777;BME280;38656;54.260;20.822;2024-02-23T00:01:44;98758.19;;;8.43;100.00
52777;BME280;38656;54.260;20.822;2024-02-23T00:04:10;98765.13;;;8.62;100.00
52777;BME280;38656;54.260;20.822;2024-02-23T00:06:37;98753.53;;;8.55;100.00
52777;BME280;38656;54.260;20.822;2024-02-23T00:09:03;98754.09;;;8.84;100.00
52777;BME280;38656;54.260;20.822;2024-02-23T00:11:41;98758.06;;;8.44;100.00
52777;BME280;38656;54.260;20.822;2024-02-23T00:14:11;98769.16;;;8.74;100.00
52777;BME280;38656;54.260;20.822;2024-02-23T00:16:39;98763.25;;;8.54;100.00
52777;BME280;38656;54.260;20.822;2024-02-23T00:19:08;98758.00;;;8.80;100.00
52777;BME280;38656;54.260;20.822;2024-02-23T00:21:35;98764.16;;;8.45;100.00
52777;BME280;38656;54.260;20.822;2024-02-23T00:24:02;98756.75;;;8.66;100.00
52777;BME280;38656;54.260;20.822;2024-02-23T00:26:28;98750.84;;;8.46;100.00
52777;BME280;38656;54.260;20.822;2024-02-23T00:28:55;98747.00;;;8.59;100.00
52777;BME280;38656;54.260;20.822;2024-02-23T00:31:22;98739.50;;;8.46;100.00
52777;BME280;38656;54.260;20.822;2024-02-23T00:33:48;98741.16;;;8.47;100.00
52777;BME280;38656;54.260;20.822;2024-02-23T00:36:14;98738.66;;;8.27;100.00
52777;BME280;38656;54.260;20.822;2024-02-23T00:38:40;98729.50;;;8.31;100.00
52777;BME280;38656;54.260;20.822;2024-02-23T00:41:07;98724.72;;;8.45;100.00
52777;BME280;38656;54.260;20.822;2024-02-23T00:43:43;98731.78;;;8.71;100.00
52777;BME280;38656;54.260;20.822;2024-02-23T00:46:09;98734.53;;;8.87;100.00
52777;BME280;38656;54.260;20.822;2024-02-23T00:48:35;98729.09;;;8.26;100.00
52777;BME280;38656;54.260;20.822;2024-02-23T00:51:02;98730.47;;;8.30;100.00
52777;BME280;38656;54.260;20.822;2024-02-23T00:53:30;98715.59;;;8.57;100.00
52777;BME280;38656;54.260;20.822;2024-02-23T00:55:56;98712.22;;;8.47;100.00
52777;BME280;38656;54.260;20.822;2024-02-23T00:58:22;98715.78;;;8.64;100.00
52777;BME280;38656;54.260;20.822;2024-02-23T01:00:49;98704.09;;;8.58;100.00
52777;BME280;38656;54.260;20.822;2024-02-23T01:03:15;98710.16;;;8.41;100.00
52777;BME280;38656;54.260;20.822;2024-02-23T01:05:41;98705.78;;;8.67;100.00
52777;BME280;38656;54.260;20.822;2024-02-23T01:08:08;98701.66;;;8.65;100.00
52777;BME280;38656;54.260;20.822;2024-02-23T01:10:35;98706.19;;;8.55;100.00
52777;BME280;38656;54.260;20.822;2024-02-23T01:13:01;98705.38;;;8.54;100.00
52777;BME280;38656;54.260;20.822;2024-02-23T01:15:27;98698.91;;;8.30;100.00
52777;BME280;38656;54.260;20.822;2024-02-23T01:17:53;98698.69;;;8.60;100.00
52777;BME280;38656;54.260;20.822;2024-02-23T01:20:19;98699.56;;;8.50;100.00
52777;BME280;38656;54.260;20.822;2024-02-23T01:22:45;98698.00;;;8.40;100.00
52777;BME280;38656;54.260;20.822;2024-02-23T01:25:12;98699.19;;;8.63;100.00
52777;BME280;38656;54.260;20.822;2024-02-23T01:27:38;98688.72;;;8.72;100.00
52777;BME280;38656;54.260;20.822;2024-02-23T01:30:06;98694.34;;;8.32;100.00
52777;BME280;38656;54.260;20.822;2024-02-23T01:32:32;98698.28;;;8.37;100.00
52777;BME280;38656;54.260;20.822;2024-02-23T01:34:58;98699.19;;;8.63;100.00
52777;BME280;38656;54.260;20.822;2024-02-23T01:37:24;98696.38;;;8.91;100.00
52777;BME280;38656;54.260;20.822;2024-02-23T01:39:51;98687.72;;;8.28;100.00
52777;BME280;38656;54.260;20.822;2024-02-23T01:42:17;98694.03;;;8.80;100.00
52777;BME280;38656;54.260;20.822;2024-02-23T01:44:43;98690.22;;;8.48;100.00
52777;BME280;38656;54.260;20.822;2024-02-23T01:47:11;98688.44;;;8.83;100.00
52777;BME280;38656;54.260;20.822;2024-02-23T01:49:37;98688.03;;;8.70;100.00
52777;BME280;38656;54.260;20.822;2024-02-23T01:52:03;98685.94;;;9.08;100.00
52777;BME280;38656;54.260;20.822;2024-02-23T01:54:31;98680.19;;;9.63;100.00
52777;BME280;38656;54.260;20.822;2024-02-23T01:56:57;98681.34;;;8.75;100.00
52777;BME280;38656;54.260;20.822;2024-02-23T01:59:27;98677.44;;;9.14;100.00
52777;BME280;38656;54.260;20.822;2024-02-23T02:01:56;98672.97;;;8.80;100.00
52777;BME280;38656;54.260;20.822;2024-02-23T02:04:22;98670.28;;;8.27;100.00
52777;BME280;38656;54.260;20.822;2024-02-23T02:06:49;98666.47;;;8.66;100.00
52777;BME280;38656;54.260;20.822;2024-02-23T02:09:15;98669.00;;;8.31;100.00
52777;BME280;38656;54.260;20.822;2024-02-23T02:11:48;98664.09;;;8.55;100.00
52777;BME280;38656;54.260;20.822;2024-02-23T02:14:15;98670.38;;;8.36;100.00
52777;BME280;38656;54.260;20.822;2024-02-23T02:16:42;98669.16;;;8.48;100.00
52777;BME280;38656;54.260;20.822;2024-02-23T02:19:13;98659.53;;;8.91;100.00
52777;BME280;38656;54.260;20.822;2024-02-23T02:21:41;98662.53;;;8.70;100.00
52777;BME280;38656;54.260;20.822;2024-02-23T02:24:07;98659.59;;;8.47;100.00
52777;BME280;38656;54.260;20.822;2024-02-23T02:26:34;98656.97;;;8.47;100.00
52777;BME280;38656;54.260;20.822;2024-02-23T02:29:01;98659.47;;;8.30;100.00
52777;BME280;38656;54.260;20.822;2024-02-23T02:31:27;98662.69;;;8.42;100.00
52777;BME280;38656;54.260;20.822;2024-02-23T02:33:53;98654.19;;;8.48;100.00
52777;BME280;38656;54.260;20.822;2024-02-23T02:36:19;98656.97;;;8.47;100.00
52777;BME280;38656;54.260;20.822;2024-02-23T02:38:45;98654.22;;;8.12;100.00
52777;BME280;38656;54.260;20.822;2024-02-23T02:41:11;98646.78;;;8.44;100.00
52777;BME280;38656;54.260;20.822;2024-02-23T02:43:37;98644.94;;;8.44;100.00
52777;BME280;38656;54.260;20.822;2024-02-23T02:46:04;98648.72;;;8.42;100.00
52777;BME280;38656;54.260;20.822;2024-02-23T02:48:30;98639.59;;;8.54;100.00
52777;BME280;38656;54.260;20.822;2024-02-23T02:50:56;98634.53;;;8.35;100.00
52777;BME280;38656;54.260;20.822;2024-02-23T02:53:22;98639.59;;;8.10;100.00
52777;BME280;38656;54.260;20.822;2024-02-23T02:55:51;98639.41;;;8.29;100.00
52777;BME280;38656;54.260;20.822;2024-02-23T02:58:17;98646.00;;;8.33;100.00
52777;BME280;38656;54.260;20.822;2024-02-23T03:00:43;98642.72;;;8.31;100.00
52777;BME280;38656;54.260;20.822;2024-02-23T03:03:09;98646.16;;;8.32;100.00
52777;BME280;38656;54.260;20.822;2024-02-23T03:05:35;98644.22;;;8.52;100.00
52777;BME280;38656;54.260;20.822;2024-02-23T03:08:01;98647.66;;;8.35;100.00
52777;BME280;38656;54.260;20.822;2024-02-23T03:10:28;98647.13;;;8.05;100.00
52777;BME280;38656;54.260;20.822;2024-02-23T03:12:54;98645.84;;;8.53;100.00
52777;BME280;38656;54.260;20.822;2024-02-23T03:15:20;98651.88;;;8.27;100.00
52777;BME280;38656;54.260;20.822;2024-02-23T03:17:46;98650.47;;;8.15;100.00
52777;BME280;38656;54.260;20.822;2024-02-23T03:20:12;98657.31;;;8.08;100.00
52777;BME280;38656;54.260;20.822;2024-02-23T03:22:39;98652.59;;;8.11;100.00
52777;BME280;38656;54.260;20.822;2024-02-23T03:25:05;98645.06;;;8.43;100.00
52777;BME280;38656;54.260;20.822;2024-02-23T03:27:37;98650.53;;;8.23;100.00
52777;BME280;38656;54.260;20.822;2024-02-23T03:30:04;98659.41;;;8.22;100.00
52777;BME280;38656;54.260;20.822;2024-02-23T03:32:31;98650.03;;;8.02;100.00
52777;BME280;38656;54.260;20.822;2024-02-23T03:35:05;98655.19;;;8.29;100.00
52777;BME280;38656;54.260;20.822;2024-02-23T03:37:32;98656.72;;;8.14;100.00
52777;BME280;38656;54.260;20.822;2024-02-23T03:39:58;98650.72;;;8.04;100.00
52777;BME280;38656;54.260;20.822;2024-02-23T03:42:25;98649.03;;;8.39;100.00
52777;BME280;38656;54.260;20.822;2024-02-23T03:44:52;98649.81;;;8.13;100.00
52777;BME280;38656;54.260;20.822;2024-02-23T03:47:19;98645.56;;;8.20;100.00
52777;BME280;38656;54.260;20.822;2024-02-23T03:49:45;98651.44;;;8.14;100.00
52777;BME280;38656;54.260;20.822;2024-02-23T03:52:11;98636.53;;;8.41;100.00
52777;BME280;38656;54.260;20.822;2024-02-23T03:54:37;98646.00;;;8.33;100.00
52777;BME280;38656;54.260;20.822;2024-02-23T03:57:03;98642.75;;;8.13;100.00
52777;BME280;38656;54.260;20.822;2024-02-23T03:59:30;98636.75;;;8.29;100.00
52777;BME280;38656;54.260;20.822;2024-02-23T04:01:56;98646.91;;;8.42;100.00
52777;BME280;38656;54.260;20.822;2024-02-23T04:04:22;98647.97;;;8.49;100.00
52777;BME280;38656;54.260;20.822;2024-02-23T04:06:48;98666.38;;;8.31;100.00
52777;BME280;38656;54.260;20.822;2024-02-23T04:09:15;98646.97;;;8.50;100.00
52777;BME280;38656;54.260;20.822;2024-02-23T04:11:41;98669.22;;;8.38;100.00
52777;BME280;38656;54.260;20.822;2024-02-23T04:14:07;98667.41;;;8.57;100.00
52777;BME280;38656;54.260;20.822;2024-02-23T04:16:33;98659.69;;;8.55;100.00
52777;BME280;38656;54.260;20.822;2024-02-23T04:18:59;98669.75;;;8.42;100.00
52777;BME280;38656;54.260;20.822;2024-02-23T04:21:25;98664.63;;;8.58;100.00
52777;BME280;38656;54.260;20.822;2024-02-23T04:23:52;98667.91;;;8.60;100.00
52777;BME280;38656;54.260;20.822;2024-02-23T04:26:18;98661.31;;;8.56;100.00
52777;BME280;38656;54.260;20.822;2024-02-23T04:28:44;98656.31;;;8.45;100.00
52777;BME280;38656;54.260;20.822;2024-02-23T04:31:11;98652.94;;;8.35;100.00
52777;BME280;38656;54.260;20.822;2024-02-23T04:33:37;98644.25;;;8.60;100.00
52777;BME280;38656;54.260;20.822;2024-02-23T04:36:04;98646.09;;;8.68;100.00
52777;BME280;38656;54.260;20.822;2024-02-23T04:38:31;98649.34;;;8.62;100.00
52777;BME280;38656;54.260;20.822;2024-02-23T04:40:57;98653.38;;;8.48;100.00
52777;BME280;38656;54.260;20.822;2024-02-23T04:43:24;98651.78;;;8.55;100.00
52777;BME280;38656;54.260;20.822;2024-02-23T04:45:51;98661.75;;;8.25;100.00
52777;BME280;38656;54.260;20.822;2024-02-23T04:48:17;98656.22;;;8.37;100.00
52777;BME280;38656;54.260;20.822;2024-02-23T04:50:43;98662.56;;;8.44;100.00
52777;BME280;38656;54.260;20.822;2024-02-23T04:53:09;98653.69;;;8.45;100.00
52777;BME280;38656;54.260;20.822;2024-02-23T04:55:36;98661.91;;;8.24;100.00
52777;BME280;38656;54.260;20.822;2024-02-23T04:58:02;98651.56;;;8.30;100.00
52777;BME280;38656;54.260;20.822;2024-02-23T05:00:28;98650.34;;;8.43;100.00
52777;BME280;38656;54.260;20.822;2024-02-23T05:02:59;98658.38;;;8.15;100.00
52777;BME280;38656;54.260;20.822;2024-02-23T05:05:26;98652.94;;;8.35;100.00
52777;BME280;38656;54.260;20.822;2024-02-23T05:07:52;98657.25;;;8.00;100.00
52777;BME280;38656;54.260;20.822;2024-02-23T05:10:18;98660.03;;;8.16;100.00
52777;BME280;38656;54.260;20.822;2024-02-23T05:12:44;98662.06;;;8.04;100.00
52777;BME280;38656;54.260;20.822;2024-02-23T05:15:10;98662.72;;;8.06;100.00
52777;BME280;38656;54.260;20.822;2024-02-23T05:17:37;98663.50;;;7.98;100.00
52777;BME280;38656;54.260;20.822;2024-02-23T05:20:03;98666.31;;;8.23;100.00
52777;BME280;38656;54.260;20.822;2024-02-23T05:22:33;98664.16;;;8.01;100.00
52777;BME280;38656;54.260;20.822;2024-02-23T05:25:00;98666.72;;;7.74;100.00
52777;BME280;38656;54.260;20.822;2024-02-23T05:27:26;98662.28;;;7.75;100.00
52777;BME280;38656;54.260;20.822;2024-02-23T05:29:53;98670.16;;;8.11;100.00
52777;BME280;38656;54.260;20.822;2024-02-23T05:32:19;98660.34;;;8.13;100.00
52777;BME280;38656;54.260;20.822;2024-02-23T05:34:45;98669.41;;;7.65;100.00
52777;BME280;38656;54.260;20.822;2024-02-23T05:37:12;98675.81;;;7.80;100.00
52777;BME280;38656;54.260;20.822;2024-02-23T05:39:38;98680.00;;;8.09;100.00
52777;BME280;38656;54.260;20.822;2024-02-23T05:42:04;98677.75;;;7.78;100.00
52777;BME280;38656;54.260;20.822;2024-02-23T05:44:31;98683.75;;;7.88;100.00
52777;BME280;38656;54.260;20.822;2024-02-23T05:46:57;98683.91;;;8.05;100.00
52777;BME280;38656;54.260;20.822;2024-02-23T05:49:23;98687.22;;;7.71;100.00
52777;BME280;38656;54.260;20.822;2024-02-23T05:51:50;98694.72;;;7.66;100.00
52777;BME280;38656;54.260;20.822;2024-02-23T05:54:16;98701.56;;;7.94;100.00
52777;BME280;38656;54.260;20.822;2024-02-23T05:56:44;98699.88;;;7.57;100.00
52777;BME280;38656;54.260;20.822;2024-02-23T05:59:11;98702.97;;;7.71;100.00
52777;BME280;38656;54.260;20.822;2024-02-23T06:01:37;98703.09;;;7.51;100.00
52777;BME280;38656;54.260;20.822;2024-02-23T06:04:04;98698.91;;;7.58;100.00
52777;BME280;38656;54.260;20.822;2024-02-23T06:06:31;98706.56;;;7.70;100.00
52777;BME280;38656;54.260;20.822;2024-02-23T06:08:57;98712.06;;;7.76;100.00
52777;BME280;38656;54.260;20.822;2024-02-23T06:11:23;98711.84;;;7.70;100.00
52777;BME280;38656;54.260;20.822;2024-02-23T06:13:49;98711.88;;;7.60;100.00
52777;BME280;38656;54.260;20.822;2024-02-23T06:16:15;98733.03;;;7.58;100.00
52777;BME280;38656;54.260;20.822;2024-02-23T06:18:42;98720.38;;;7.72;100.00
52777;BME280;38656;54.260;20.822;2024-02-23T06:21:15;98723.72;;;7.74;100.00
52777;BME280;38656;54.260;20.822;2024-02-23T06:23:42;98727.16;;;7.92;100.00
52777;BME280;38656;54.260;20.822;2024-02-23T06:26:08;98723.16;;;7.70;100.00
52777;BME280;38656;54.260;20.822;2024-02-23T06:28:35;98728.78;;;7.57;100.00
52777;BME280;38656;54.260;20.822;2024-02-23T06:31:03;98729.69;;;7.84;100.00
52777;BME280;38656;54.260;20.822;2024-02-23T06:33:30;98722.38;;;8.06;100.00
52777;BME280;38656;54.260;20.822;2024-02-23T06:35:57;98730.81;;;7.64;100.00
52777;BME280;38656;54.260;20.822;2024-02-23T06:38:23;98739.59;;;7.54;100.00
52777;BME280;38656;54.260;20.822;2024-02-23T06:40:49;98736.44;;;7.69;100.00
52777;BME280;38656;54.260;20.822;2024-02-23T06:43:15;98737.09;;;7.98;100.00
52777;BME280;38656;54.260;20.822;2024-02-23T06:45:41;98741.28;;;7.91;100.00
52777;BME280;38656;54.260;20.822;2024-02-23T06:48:08;98755.16;;;7.84;100.00
52777;BME280;38656;54.260;20.822;2024-02-23T06:50:35;98743.38;;;7.88;100.00
52777;BME280;38656;54.260;20.822;2024-02-23T06:53:01;98738.56;;;7.83;100.00
52777;BME280;38656;54.260;20.822;2024-02-23T06:55:28;98766.03;;;7.71;100.00
52777;BME280;38656;54.260;20.822;2024-02-23T06:57:54;98766.03;;;7.71;100.00
52777;BME280;38656;54.260;20.822;2024-02-23T07:00:21;98762.13;;;7.75;100.00
52777;BME280;38656;54.260;20.822;2024-02-23T07:02:47;98754.22;;;8.03;100.00
52777;BME280;38656;54.260;20.822;2024-02-23T07:05:13;98778.16;;;8.00;100.00
52777;BME280;38656;54.260;20.822;2024-02-23T07:07:40;98777.28;;;7.81;100.00
52777;BME280;38656;54.260;20.822;2024-02-23T07:10:07;98785.19;;;7.81;100.00
52777;BME280;38656;54.260;20.822;2024-02-23T07:12:34;98797.38;;;8.00;100.00
52777;BME280;38656;54.260;20.822;2024-02-23T07:15:01;98795.75;;;8.17;100.00
52777;BME280;38656;54.260;20.822;2024-02-23T07:17:27;98789.88;;;8.23;100.00
52777;BME280;38656;54.260;20.822;2024-02-23T07:19:54;98794.53;;;8.29;100.00
52777;BME280;38656;54.260;20.822;2024-02-23T07:22:27;98798.53;;;8.33;100.00
52777;BME280;38656;54.260;20.822;2024-02-23T07:24:53;98817.78;;;8.16;100.00
52777;BME280;38656;54.260;20.822;2024-02-23T07:27:19;98822.59;;;8.21;100.00
52777;BME280;38656;54.260;20.822;2024-02-23T07:29:45;98819.28;;;8.37;100.00
52777;BME280;38656;54.260;20.822;2024-02-23T07:32:11;98827.84;;;8.39;100.00
52777;BME280;38656;54.260;20.822;2024-02-23T07:34:38;98826.34;;;8.36;100.00
52777;BME280;38656;54.260;20.822;2024-02-23T07:37:04;98831.00;;;8.24;100.00
52777;BME280;38656;54.260;20.822;2024-02-23T07:39:30;98829.94;;;8.17;100.00
52777;BME280;38656;54.260;20.822;2024-02-23T07:41:56;98829.16;;;8.07;100.00
52777;BME280;38656;54.260;20.822;2024-02-23T07:44:22;98833.41;;;8.36;100.00
52777;BME280;38656;54.260;20.822;2024-02-23T07:46:49;98837.50;;;8.48;100.00
52777;BME280;38656;54.260;20.822;2024-02-23T07:49:15;98838.69;;;8.36;100.00
52777;BME280;38656;54.260;20.822;2024-02-23T07:51:41;98846.56;;;8.36;100.00
52777;BME280;38656;54.260;20.822;2024-02-23T07:54:07;98847.72;;;8.51;100.00
52777;BME280;38656;54.260;20.822;2024-02-23T07:56:33;98859.38;;;8.84;100.00
52777;BME280;38656;54.260;20.822;2024-02-23T07:58:59;98863.97;;;8.64;100.00
52777;BME280;38656;54.260;20.822;2024-02-23T08:01:25;98867.25;;;9.02;100.00
52777;BME280;38656;54.260;20.822;2024-02-23T08:03:51;98879.03;;;9.16;100.00
52777;BME280;38656;54.260;20.822;2024-02-23T08:06:18;98875.44;;;8.99;100.00
52777;BME280;38656;54.260;20.822;2024-02-23T08:08:44;98873.47;;;9.01;100.00
52777;BME280;38656;54.260;20.822;2024-02-23T08:11:10;98882.03;;;9.21;100.00
52777;BME280;38656;54.260;20.822;2024-02-23T08:13:36;98890.13;;;8.84;100.00
52777;BME280;38656;54.260;20.822;2024-02-23T08:16:02;98893.88;;;8.99;100.00
52777;BME280;38656;54.260;20.822;2024-02-23T08:18:29;98888.13;;;9.22;100.00
52777;BME280;38656;54.260;20.822;2024-02-23T08:20:55;98888.63;;;8.99;100.00
52777;BME280;38656;54.260;20.822;2024-02-23T08:23:22;98893.13;;;8.89;100.00
52777;BME280;38656;54.260;20.822;2024-02-23T08:25:48;98899.00;;;8.83;100.00
52777;BME280;38656;54.260;20.822;2024-02-23T08:28:15;98904.06;;;9.38;100.00
52777;BME280;38656;54.260;20.822;2024-02-23T08:30:41;98904.22;;;9.37;100.00
52777;BME280;38656;54.260;20.822;2024-02-23T08:33:07;98912.06;;;9.11;100.00
52777;BME280;38656;54.260;20.822;2024-02-23T08:35:35;98906.78;;;9.11;100.00
52777;BME280;38656;54.260;20.822;2024-02-23T08:38:02;98919.84;;;9.12;100.00
52777;BME280;38656;54.260;20.822;2024-02-23T08:40:28;98928.72;;;8.93;100.00
52777;BME280;38656;54.260;20.822;2024-02-23T08:42:54;98925.16;;;9.02;100.00
52777;BME280;38656;54.260;20.822;2024-02-23T08:45:20;98924.41;;;8.92;100.00
52777;BME280;38656;54.260;20.822;2024-02-23T08:47:46;98919.59;;;9.06;100.00
52777;BME280;38656;54.260;20.822;2024-02-23T08:50:13;98931.03;;;8.96;100.00
52777;BME280;38656;54.260;20.822;2024-02-23T08:52:40;98928.91;;;9.18;100.00
52777;BME280;38656;54.260;20.822;2024-02-23T08:55:06;98934.63;;;9.31;100.00
52777;BME280;38656;54.260;20.822;2024-02-23T08:57:32;98938.47;;;9.19;100.00
52777;BME280;38656;54.260;20.822;2024-02-23T08:59:59;98941.47;;;9.24;100.00
52777;BME280;38656;54.260;20.822;2024-02-23T09:02:25;98944.97;;;9.51;100.00
52777;BME280;38656;54.260;20.822;2024-02-23T09:04:51;98948.47;;;9.33;100.00
52777;BME280;38656;54.260;20.822;2024-02-23T09:07:18;98952.97;;;9.41;100.00
52777;BME280;38656;54.260;20.822;2024-02-23T09:09:47;98956.75;;;9.38;100.00
52777;BME280;38656;54.260;20.822;2024-02-23T09:12:17;98954.69;;;9.77;100.00
52777;BME280;38656;54.260;20.822;2024-02-23T09:14:44;98958.25;;;9.67;100.00
52777;BME280;38656;54.260;20.822;2024-02-23T09:17:10;98960.28;;;9.73;100.00
52777;BME280;38656;54.260;20.822;2024-02-23T09:19:37;98960.00;;;9.59;100.00
52777;BME280;38656;54.260;20.822;2024-02-23T09:22:03;98971.84;;;9.81;100.00
52777;BME280;38656;54.260;20.822;2024-02-23T09:24:29;98971.50;;;9.76;100.00
52777;BME280;38656;54.260;20.822;2024-02-23T09:26:56;98979.63;;;9.82;100.00
52777;BME280;38656;54.260;20.822;2024-02-23T09:29:22;98978.47;;;9.85;100.00
52777;BME280;38656;54.260;20.822;2024-02-23T09:31:48;98989.13;;;9.75;100.00
52777;BME280;38656;54.260;20.822;2024-02-23T09:34:14;98996.44;;;9.63;100.00
52777;BME280;38656;54.260;20.822;2024-02-23T09:36:41;98995.03;;;9.95;100.00
52777;BME280;38656;54.260;20.822;2024-02-23T09:39:07;98990.75;;;10.02;100.00
52777;BME280;38656;54.260;20.822;2024-02-23T09:41:33;98991.16;;;10.16;100.00
52777;BME280;38656;54.260;20.822;2024-02-23T09:44:01;98998.34;;;10.05;100.00
52777;BME280;38656;54.260;20.822;2024-02-23T09:46:28;99004.25;;;10.25;100.00
52777;BME280;38656;54.260;20.822;2024-02-23T09:48:55;99013.84;;;10.00;100.00
52777;BME280;38656;54.260;20.822;2024-02-23T09:51:23;99010.03;;;10.29;100.00
52777;BME280;38656;54.260;20.822;2024-02-23T09:53:51;99012.97;;;10.95;100.00
52777;BME280;38656;54.260;20.822;2024-02-23T09:56:18;99031.00;;;10.57;100.00
52777;BME280;38656;54.260;20.822;2024-02-23T09:58:47;99024.38;;;10.53;100.00
52777;BME280;38656;54.260;20.822;2024-02-23T10:01:19;99029.13;;;10.92;100.00
52777;BME280;38656;54.260;20.822;2024-02-23T10:03:48;99043.81;;;10.52;100.00
52777;BME280;38656;54.260;20.822;2024-02-23T10:06:14;99040.34;;;10.86;100.00
52777;BME280;38656;54.260;20.822;2024-02-23T10:08:40;99048.78;;;10.97;100.00
52777;BME280;38656;54.260;20.822;2024-02-23T10:11:07;99051.50;;;10.71;100.00
52777;BME280;38656;54.260;20.822;2024-02-23T10:13:34;99057.31;;;10.40;100.00
52777;BME280;38656;54.260;20.822;2024-02-23T10:16:00;99057.16;;;10.85;100.00
52777;BME280;38656;54.260;20.822;2024-02-23T10:18:26;99065.72;;;10.87;100.00
52777;BME280;38656;54.260;20.822;2024-02-23T10:20:52;99065.88;;;11.28;100.00
52777;BME280;38656;54.260;20.822;2024-02-23T10:23:19;99077.00;;;10.89;100.00
52777;BME280;38656;54.260;20.822;2024-02-23T10:25:46;99078.34;;;11.09;100.00
52777;BME280;38656;54.260;20.822;2024-02-23T10:28:13;99086.09;;;11.03;100.00
52777;BME280;38656;54.260;20.822;2024-02-23T10:30:39;99089.88;;;10.92;100.00
52777;BME280;38656;54.260;20.822;2024-02-23T10:33:06;99097.78;;;10.92;100.00
52777;BME280;38656;54.260;20.822;2024-02-23T10:35:32;99096.44;;;11.47;100.00
52777;BME280;38656;54.260;20.822;2024-02-23T10:38:07;99104.00;;;11.33;100.00
52777;BME280;38656;54.260;20.822;2024-02-23T10:40:38;99100.50;;;11.08;100.00
52777;BME280;38656;54.260;20.822;2024-02-23T10:43:11;99104.13;;;11.07;100.00
52777;BME280;38656;54.260;20.822;2024-02-23T10:45:39;99106.16;;;11.22;100.00
52777;BME280;38656;54.260;20.822;2024-02-23T10:48:08;99110.53;;;11.05;100.00
52777;BME280;38656;54.260;20.822;2024-02-23T10:50:35;99114.44;;;11.35;100.00
52777;BME280;38656;54.260;20.822;2024-02-23T10:53:04;99113.16;;;11.47;100.00
52777;BME280;38656;54.260;20.822;2024-02-23T10:55:33;99117.44;;;11.40;100.00
52777;BME280;38656;54.260;20.822;2024-02-23T10:57:59;99117.53;;;12.06;100.00
52777;BME280;38656;54.260;20.822;2024-02-23T11:00:26;99134.91;;;11.25;100.00
52777;BME280;38656;54.260;20.822;2024-02-23T11:02:53;99133.13;;;11.50;100.00
52777;BME280;38656;54.260;20.822;2024-02-23T11:05:21;99134.78;;;11.51;100.00
52777;BME280;38656;54.260;20.822;2024-02-23T11:07:49;99135.88;;;11.32;100.00
52777;BME280;38656;54.260;20.822;2024-02-23T11:10:17;99146.72;;;11.72;100.00
52777;BME280;38656;54.260;20.822;2024-02-23T11:12:44;99150.28;;;11.38;100.00
52777;BME280;38656;54.260;20.822;2024-02-23T11:15:16;99159.38;;;11.43;100.00
52777;BME280;38656;54.260;20.822;2024-02-23T11:17:51;99161.97;;;11.27;100.00
52777;BME280;38656;54.260;20.822;2024-02-23T11:20:17;99166.19;;;11.46;100.00
52777;BME280;38656;54.260;20.822;2024-02-23T11:22:43;99172.59;;;11.43;100.00
52777;BME280;38656;54.260;20.822;2024-02-23T11:25:10;99179.31;;;11.80;100.00
52777;BME280;38656;54.260;20.822;2024-02-23T11:27:37;99183.19;;;11.51;100.00
52777;BME280;38656;54.260;20.822;2024-02-23T11:30:08;99184.84;;;11.52;100.00
52777;BME280;38656;54.260;20.822;2024-02-23T11:35:11;99196.78;;;11.65;100.00
52777;BME280;38656;54.260;20.822;2024-02-23T11:37:55;99205.44;;;11.92;100.00
52777;BME280;38656;54.260;20.822;2024-02-23T11:40:32;99214.63;;;11.71;100.00
52777;BME280;38656;54.260;20.822;2024-02-23T11:42:59;99215.06;;;12.01;100.00
52777;BME280;38656;54.260;20.822;2024-02-23T11:45:27;99231.81;;;11.59;100.00
52777;BME280;38656;54.260;20.822;2024-02-23T11:47:55;99236.97;;;11.68;100.00
52777;BME280;38656;54.260;20.822;2024-02-23T11:50:21;99239.59;;;12.19;100.00
52777;BME280;38656;54.260;20.822;2024-02-23T11:52:48;99241.00;;;11.46;100.00
52777;BME280;38656;54.260;20.822;2024-02-23T11:55:19;99251.72;;;11.79;100.00
52777;BME280;38656;54.260;20.822;2024-02-23T11:57:48;99248.94;;;11.46;100.00
52777;BME280;38656;54.260;20.822;2024-02-23T12:00:15;99254.28;;;11.63;100.00
52777;BME280;38656;54.260;20.822;2024-02-23T12:02:43;99257.16;;;11.78;100.00
52777;BME280;38656;54.260;20.822;2024-02-23T12:05:09;99264.47;;;11.49;100.00
52777;BME280;38656;54.260;20.822;2024-02-23T12:07:35;99265.25;;;11.76;100.00
52777;BME280;38656;54.260;20.822;2024-02-23T12:10:02;99271.81;;;11.64;100.00
52777;BME280;38656;54.260;20.822;2024-02-23T12:12:30;99278.16;;;11.79;100.00
52777;BME280;38656;54.260;20.822;2024-02-23T12:14:56;99279.06;;;11.54;100.00
52777;BME280;38656;54.260;20.822;2024-02-23T12:17:22;99285.84;;;11.99;100.00
52777;BME280;38656;54.260;20.822;2024-02-23T12:19:49;99283.63;;;11.86;100.00
52777;BME280;38656;54.260;20.822;2024-02-23T12:22:15;99294.84;;;11.45;100.00
52777;BME280;38656;54.260;20.822;2024-02-23T12:24:41;99299.47;;;11.35;100.00
52777;BME280;38656;54.260;20.822;2024-02-23T12:27:08;99309.47;;;11.58;100.00
52777;BME280;38656;54.260;20.822;2024-02-23T12:29:34;99318.47;;;11.73;100.00
52777;BME280;38656;54.260;20.822;2024-02-23T12:32:07;99307.50;;;11.60;100.00
52777;BME280;38656;54.260;20.822;2024-02-23T12:34:34;99314.38;;;11.18;100.00
52777;BME280;38656;54.260;20.822;2024-02-23T12:37:02;99312.19;;;11.40;100.00
52777;BME280;38656;54.260;20.822;2024-02-23T12:39:30;99326.47;;;11.29;100.00
52777;BME280;38656;54.260;20.822;2024-02-23T12:41:56;99321.41;;;11.36;100.00
52777;BME280;38656;54.260;20.822;2024-02-23T12:44:22;99336.28;;;11.71;100.00
52777;BME280;38656;54.260;20.822;2024-02-23T12:46:49;99339.09;;;11.96;100.00
52777;BME280;38656;54.260;20.822;2024-02-23T12:49:15;99341.88;;;11.60;100.00